Time;durP1;ratioP1;P1;durP2;ratioP2;P2;SDS_P1;SDS_P2;PMS_P1;PMS_P2;Temp;Humidity;BMP_temperature;BMP_pressure;BME280_temperature;BME280_humidity;BME280_pressure;Samples;Min_cycle;Max_cycle;Signal;HPM_P1;HPM_P2
2022/12/06 00:00:44;;;;;;;;;;;7.90;99.90;;;;;;7334494;19;109233;-69
2022/12/06 00:03:11;;;;;;;;;;;7.90;99.90;;;;;;7334295;19;108629;-69
2022/12/06 00:05:38;;;;;;;;;;;7.80;99.90;;;;;;7338727;19;109336;-69
2022/12/06 00:08:11;;;;;;;;;;;7.80;99.90;;;;;;7335463;19;114435;-69
2022/12/06 00:10:39;;;;;;;;;;;7.80;99.90;;;;;;7334780;19;109100;-71
2022/12/06 00:13:06;;;;;;;;;;;7.90;99.90;;;;;;7335852;19;110307;-69
2022/12/06 00:15:34;;;;;;;;;;;7.90;99.90;;;;;;7336474;19;108700;-69
2022/12/06 00:18:01;;;;;;;;;;;7.90;99.90;;;;;;7335890;19;108334;-69
2022/12/06 00:20:28;;;;;;;;;;;7.90;99.90;;;;;;7335173;19;110663;-69
2022/12/06 00:22:56;;;;;;;;;;;7.80;99.90;;;;;;7336950;19;109096;-72
2022/12/06 00:25:22;;;;;;;;;;;7.80;99.90;;;;;;7336398;19;108970;-69
2022/12/06 00:27:50;;;;;;;;;;;7.80;99.90;;;;;;7340720;19;110839;-69
2022/12/06 00:30:17;;;;;;;;;;;7.70;99.90;;;;;;7336092;19;109268;-69
2022/12/06 00:32:44;;;;;;;;;;;7.70;99.90;;;;;;7334791;19;110378;-69
2022/12/06 00:35:11;;;;;;;;;;;7.70;99.90;;;;;;7335342;19;109877;-69
2022/12/06 00:37:38;;;;;;;;;;;7.80;99.90;;;;;;7335728;19;108885;-70
2022/12/06 00:40:05;;;;;;;;;;;7.70;99.90;;;;;;7336985;19;109137;-69
2022/12/06 00:42:32;;;;;;;;;;;7.80;99.90;;;;;;7335672;19;108341;-69
2022/12/06 00:44:59;;;;;;;;;;;7.80;99.90;;;;;;7336068;19;109679;-69
2022/12/06 00:47:26;;;;;;;;;;;7.80;99.90;;;;;;7333957;19;110036;-69
2022/12/06 00:49:53;;;;;;;;;;;7.80;99.90;;;;;;7342554;19;108826;-70
2022/12/06 00:52:20;;;;;;;;;;;7.70;99.90;;;;;;7341427;19;112148;-69
2022/12/06 00:54:47;;;;;;;;;;;7.80;99.90;;;;;;7343641;19;109143;-69
2022/12/06 00:57:15;;;;;;;;;;;7.70;99.90;;;;;;7339885;19;109071;-69
2022/12/06 00:59:42;;;;;;;;;;;7.70;99.90;;;;;;7341294;19;111472;-70
2022/12/06 01:02:08;;;;;;;;;;;7.80;99.90;;;;;;7340821;19;109803;-69
2022/12/06 01:04:36;;;;;;;;;;;7.80;99.90;;;;;;7346718;19;109136;-69
2022/12/06 01:07:03;;;;;;;;;;;7.80;99.90;;;;;;7349143;19;110132;-70
2022/12/06 01:09:30;;;;;;;;;;;7.70;99.90;;;;;;7348076;19;109213;-69
2022/12/06 01:11:57;;;;;;;;;;;7.70;99.90;;;;;;7352402;19;111882;-69
2022/12/06 01:14:24;;;;;;;;;;;7.70;99.90;;;;;;7347249;19;108555;-69
2022/12/06 01:16:51;;;;;;;;;;;7.70;99.90;;;;;;7348034;19;109730;-70
2022/12/06 01:19:18;;;;;;;;;;;7.70;99.90;;;;;;7347587;19;113179;-69
2022/12/06 01:21:46;;;;;;;;;;;7.70;99.90;;;;;;7347824;19;108990;-69
2022/12/06 01:24:13;;;;;;;;;;;7.70;99.90;;;;;;7341988;19;108837;-69
2022/12/06 01:26:40;;;;;;;;;;;7.80;99.90;;;;;;7339487;19;109788;-69
2022/12/06 01:29:08;;;;;;;;;;;7.70;99.90;;;;;;7341546;19;109141;-69
2022/12/06 01:31:35;;;;;;;;;;;7.80;99.90;;;;;;7340864;19;109172;-69
2022/12/06 01:34:05;;;;;;;;;;;7.70;99.90;;;;;;7345438;19;110124;-70
2022/12/06 01:36:32;;;;;;;;;;;7.70;99.90;;;;;;7340792;19;109373;-70
2022/12/06 01:39:05;;;;;;;;;;;7.70;99.90;;;;;;7339612;19;110149;-70
2022/12/06 01:41:32;;;;;;;;;;;7.70;99.90;;;;;;7339613;19;108311;-70
2022/12/06 01:43:59;;;;;;;;;;;7.60;99.90;;;;;;7340573;19;109324;-70
2022/12/06 01:46:40;;;;;;;;;;;7.60;99.90;;;;;;7337628;19;109123;-70
2022/12/06 01:49:07;;;;;;;;;;;7.70;99.90;;;;;;7339151;19;108968;-70
2022/12/06 01:51:34;;;;;;;;;;;7.70;99.90;;;;;;7342166;19;109483;-70
2022/12/06 01:54:03;;;;;;;;;;;7.70;99.90;;;;;;7338117;19;109228;-70
2022/12/06 01:56:30;;;;;;;;;;;7.80;99.90;;;;;;7340447;19;108316;-70
2022/12/06 01:58:57;;;;;;;;;;;7.70;99.90;;;;;;7338532;19;110311;-71
2022/12/06 02:01:25;;;;;;;;;;;7.70;99.90;;;;;;7335570;19;108484;-70
2022/12/06 02:03:54;;;;;;;;;;;7.70;99.90;;;;;;7339714;19;109640;-72
2022/12/06 02:06:21;;;;;;;;;;;7.70;99.90;;;;;;7337907;19;110741;-70
2022/12/06 02:08:48;;;;;;;;;;;7.70;99.90;;;;;;7339131;19;109940;-70
2022/12/06 02:11:15;;;;;;;;;;;7.70;99.90;;;;;;7338324;19;109157;-71
2022/12/06 02:13:42;;;;;;;;;;;7.70;99.90;;;;;;7338776;19;110467;-69
2022/12/06 02:16:18;;;;;;;;;;;7.70;99.90;;;;;;7343587;19;108511;-70
2022/12/06 02:18:53;;;;;;;;;;;7.60;99.90;;;;;;7337361;19;130209;-69
2022/12/06 02:21:28;;;;;;;;;;;7.60;99.90;;;;;;7337252;19;109921;-69
2022/12/06 02:24:13;;;;;;;;;;;7.60;99.90;;;;;;7339696;19;109188;-69
2022/12/06 02:26:46;;;;;;;;;;;7.60;99.90;;;;;;7336989;19;110645;-70
2022/12/06 02:29:16;;;;;;;;;;;7.50;99.90;;;;;;7335598;19;108938;-70
2022/12/06 02:31:51;;;;;;;;;;;7.50;99.90;;;;;;7338104;19;109338;-70
2022/12/06 02:34:20;;;;;;;;;;;7.50;99.90;;;;;;7334821;19;113585;-69
2022/12/06 02:36:47;;;;;;;;;;;7.50;99.90;;;;;;7338806;19;109395;-69
2022/12/06 02:39:22;;;;;;;;;;;7.50;99.90;;;;;;7339157;19;108401;-69
2022/12/06 02:41:55;;;;;;;;;;;7.50;99.90;;;;;;7336516;19;108713;-69
2022/12/06 02:44:29;;;;;;;;;;;7.50;99.90;;;;;;7337649;19;109104;-69
2022/12/06 02:46:56;;;;;;;;;;;7.50;99.90;;;;;;7338916;19;110323;-69
2022/12/06 02:49:25;;;;;;;;;;;7.50;99.90;;;;;;7336635;19;108753;-69
2022/12/06 02:51:53;;;;;;;;;;;7.50;99.90;;;;;;7338441;19;113821;-69
2022/12/06 02:54:21;;;;;;;;;;;7.50;99.90;;;;;;7334053;19;110382;-70
2022/12/06 02:56:48;;;;;;;;;;;7.60;99.90;;;;;;7337023;19;108631;-69
2022/12/06 02:59:15;;;;;;;;;;;7.50;99.90;;;;;;7336258;19;111183;-69
2022/12/06 03:01:47;;;;;;;;;;;7.50;99.90;;;;;;7342322;19;109761;-69
2022/12/06 03:04:45;;;;;;;;;;;7.50;99.90;;;;;;7335682;19;109652;-69
2022/12/06 03:07:12;;;;;;;;;;;7.50;99.90;;;;;;7336431;19;111976;-69
2022/12/06 03:09:45;;;;;;;;;;;7.40;99.90;;;;;;7337843;19;108558;-69
2022/12/06 03:12:21;;;;;;;;;;;7.40;99.90;;;;;;7335202;19;109244;-69
2022/12/06 03:14:58;;;;;;;;;;;7.40;99.90;;;;;;7335724;19;110433;-69
2022/12/06 03:17:34;;;;;;;;;;;7.30;99.90;;;;;;7337050;19;108906;-69
2022/12/06 03:20:12;;;;;;;;;;;7.40;99.90;;;;;;7338059;19;108569;-69
2022/12/06 03:22:43;;;;;;;;;;;7.40;99.90;;;;;;7337958;19;110622;-69
2022/12/06 03:25:11;;;;;;;;;;;7.40;99.90;;;;;;7342837;19;108892;-70
2022/12/06 03:27:39;;;;;;;;;;;7.50;99.90;;;;;;7332679;19;109358;-70
2022/12/06 03:30:08;;;;;;;;;;;7.40;99.90;;;;;;7337375;19;108521;-70
2022/12/06 03:32:36;;;;;;;;;;;7.50;99.90;;;;;;7336837;19;108998;-70
2022/12/06 03:35:05;;;;;;;;;;;7.50;99.90;;;;;;7337231;19;110232;-70
2022/12/06 03:37:33;;;;;;;;;;;7.50;99.90;;;;;;7336951;19;109113;-70
2022/12/06 03:40:06;;;;;;;;;;;7.40;99.90;;;;;;7337369;19;110953;-70
2022/12/06 03:42:34;;;;;;;;;;;7.40;99.90;;;;;;7336687;19;111898;-70
2022/12/06 03:45:01;;;;;;;;;;;7.40;99.90;;;;;;7337558;19;108858;-70
2022/12/06 03:47:47;;;;;;;;;;;7.40;99.90;;;;;;7337923;19;110603;-70
2022/12/06 03:50:28;;;;;;;;;;;7.50;99.90;;;;;;7334561;19;108660;-70
2022/12/06 03:52:55;;;;;;;;;;;7.50;99.90;;;;;;7337490;19;109355;-70
2022/12/06 03:55:22;;;;;;;;;;;7.50;99.90;;;;;;7335947;19;110712;-70
2022/12/06 03:57:49;;;;;;;;;;;7.40;99.90;;;;;;7336520;19;108311;-70
2022/12/06 04:00:16;;;;;;;;;;;7.40;99.90;;;;;;7334665;19;109257;-70
2022/12/06 04:02:43;;;;;;;;;;;7.30;99.90;;;;;;7335586;19;109439;-70
2022/12/06 04:05:09;;;;;;;;;;;7.30;99.90;;;;;;7335926;19;109806;-70
2022/12/06 04:07:36;;;;;;;;;;;7.30;99.90;;;;;;7342343;19;109707;-70
2022/12/06 04:10:04;;;;;;;;;;;7.40;99.90;;;;;;7337176;19;108673;-69
2022/12/06 04:15:18;;;;;;;;;;;7.40;99.90;;;;;;7336890;19;112503;-70
2022/12/06 04:23:02;;;;;;;;;;;7.30;99.90;;;;;;7335344;19;109364;-70
2022/12/06 04:23:19;;;;;;;;;;;7.40;99.90;;;;;;7335796;19;110557;-70
2022/12/06 04:25:46;;;;;;;;;;;7.40;99.90;;;;;;7342980;19;110706;-70
2022/12/06 04:39:20;;;;;;;;;;;7.20;99.90;;;;;;7341640;19;108601;-70
2022/12/06 04:44:32;;;;;;;;;;;7.20;99.90;;;;;;7343102;19;110254;-70
2022/12/06 04:46:59;;;;;;;;;;;7.10;99.90;;;;;;7341933;19;108969;-70
2022/12/06 04:49:26;;;;;;;;;;;7.10;99.90;;;;;;7340508;19;109380;-70
2022/12/06 04:51:54;;;;;;;;;;;7.10;99.90;;;;;;7341897;19;111082;-70
2022/12/06 04:54:21;;;;;;;;;;;7.10;99.90;;;;;;7346126;19;108901;-70
2022/12/06 04:56:49;;;;;;;;;;;7.10;99.90;;;;;;7341173;19;110202;-70
2022/12/06 04:59:16;;;;;;;;;;;7.10;99.90;;;;;;7341616;19;108430;-70
2022/12/06 05:01:43;;;;;;;;;;;7.20;99.90;;;;;;7342342;19;108844;-70
2022/12/06 05:04:10;;;;;;;;;;;7.10;99.90;;;;;;7341262;19;110186;-70
2022/12/06 05:06:37;;;;;;;;;;;7.10;99.90;;;;;;7341912;19;111135;-69
2022/12/06 05:09:04;;;;;;;;;;;7.10;99.90;;;;;;7341983;19;112125;-70
2022/12/06 05:11:31;;;;;;;;;;;7.00;99.90;;;;;;7339151;19;110413;-70
2022/12/06 05:13:59;;;;;;;;;;;7.00;99.90;;;;;;7341028;19;108655;-70
2022/12/06 05:16:26;;;;;;;;;;;7.00;99.90;;;;;;7346174;19;109352;-70
2022/12/06 05:18:53;;;;;;;;;;;6.90;99.90;;;;;;7341486;19;109021;-70
2022/12/06 05:21:21;;;;;;;;;;;7.00;99.90;;;;;;7340589;19;108634;-69
2022/12/06 05:23:48;;;;;;;;;;;7.00;99.90;;;;;;7340665;19;110657;-70
2022/12/06 05:26:17;;;;;;;;;;;7.00;99.90;;;;;;7341751;19;109887;-70
2022/12/06 05:28:44;;;;;;;;;;;7.00;99.90;;;;;;7342761;19;110464;-70
2022/12/06 05:31:11;;;;;;;;;;;7.00;99.90;;;;;;7339285;19;109595;-69
2022/12/06 05:33:38;;;;;;;;;;;7.00;99.90;;;;;;7337275;19;108947;-70
2022/12/06 05:36:09;;;;;;;;;;;7.00;99.90;;;;;;7337620;19;110672;-70
2022/12/06 05:38:36;;;;;;;;;;;6.90;99.90;;;;;;7343729;19;109191;-70
2022/12/06 05:41:04;;;;;;;;;;;7.00;99.90;;;;;;7341803;19;108853;-70
2022/12/06 05:43:31;;;;;;;;;;;7.00;99.90;;;;;;7338033;19;109781;-70
2022/12/06 05:45:58;;;;;;;;;;;7.00;99.90;;;;;;7340624;19;108451;-70
2022/12/06 05:48:25;;;;;;;;;;;7.00;99.90;;;;;;7339388;19;109314;-70
2022/12/06 05:50:52;;;;;;;;;;;7.00;99.90;;;;;;7339961;19;110520;-70
2022/12/06 05:53:20;;;;;;;;;;;7.00;99.90;;;;;;7340989;19;108953;-70
2022/12/06 05:55:48;;;;;;;;;;;7.00;99.90;;;;;;7342436;19;109820;-70
2022/12/06 05:58:15;;;;;;;;;;;7.00;99.90;;;;;;7337467;19;112659;-70
2022/12/06 06:00:48;;;;;;;;;;;7.00;99.90;;;;;;7343557;19;109427;-69
2022/12/06 06:03:16;;;;;;;;;;;7.00;99.90;;;;;;7338656;19;110735;-70
2022/12/06 06:05:47;;;;;;;;;;;7.00;99.90;;;;;;7341505;19;109627;-70
2022/12/06 06:08:14;;;;;;;;;;;7.00;99.90;;;;;;7339502;19;109632;-69
2022/12/06 06:10:41;;;;;;;;;;;6.90;99.90;;;;;;7338439;19;110168;-70
2022/12/06 06:13:08;;;;;;;;;;;6.90;99.90;;;;;;7337883;19;108972;-69
2022/12/06 06:15:35;;;;;;;;;;;7.00;99.90;;;;;;7332091;19;109204;-70
2022/12/06 06:18:02;;;;;;;;;;;6.90;99.90;;;;;;7337735;19;110738;-70
2022/12/06 06:20:29;;;;;;;;;;;6.90;99.90;;;;;;7335942;19;108879;-70
2022/12/06 06:22:56;;;;;;;;;;;7.00;99.90;;;;;;7332953;19;111488;-70
2022/12/06 06:25:23;;;;;;;;;;;7.00;99.90;;;;;;7334574;19;109103;-70
2022/12/06 06:27:50;;;;;;;;;;;7.00;99.90;;;;;;7335799;19;109401;-69
2022/12/06 06:30:17;;;;;;;;;;;7.00;99.90;;;;;;7338867;19;114294;-70
2022/12/06 06:32:44;;;;;;;;;;;7.00;99.90;;;;;;7338221;19;108390;-70
2022/12/06 06:35:11;;;;;;;;;;;7.00;99.90;;;;;;7335863;19;109782;-68
2022/12/06 06:37:38;;;;;;;;;;;7.00;99.90;;;;;;7335996;19;110210;-68
2022/12/06 06:40:05;;;;;;;;;;;7.00;99.90;;;;;;7336218;19;109646;-68
2022/12/06 06:42:32;;;;;;;;;;;6.90;99.90;;;;;;7339442;19;110592;-68
2022/12/06 06:44:59;;;;;;;;;;;6.90;99.90;;;;;;7338338;19;108782;-68
2022/12/06 06:47:26;;;;;;;;;;;6.90;99.90;;;;;;7335973;19;109084;-68
2022/12/06 06:49:53;;;;;;;;;;;6.90;99.90;;;;;;7337560;19;111257;-68
2022/12/06 06:52:20;;;;;;;;;;;6.90;99.90;;;;;;7334150;19;108494;-69
2022/12/06 06:54:47;;;;;;;;;;;6.90;99.90;;;;;;7339951;19;113240;-68
2022/12/06 06:57:14;;;;;;;;;;;6.90;99.90;;;;;;7335228;19;109598;-68
2022/12/06 06:59:44;;;;;;;;;;;6.80;99.90;;;;;;7338815;19;109481;-68
2022/12/06 07:02:12;;;;;;;;;;;6.80;99.90;;;;;;7338745;19;109647;-68
2022/12/06 07:04:39;;;;;;;;;;;6.80;99.90;;;;;;7344930;19;111800;-70
2022/12/06 07:07:06;;;;;;;;;;;6.80;99.90;;;;;;7339330;19;108291;-68
2022/12/06 07:09:33;;;;;;;;;;;6.80;99.90;;;;;;7338736;19;109341;-68
2022/12/06 07:12:00;;;;;;;;;;;6.80;99.90;;;;;;7338967;19;108495;-68
2022/12/06 07:14:27;;;;;;;;;;;6.80;99.90;;;;;;7337970;19;109381;-68
2022/12/06 07:16:53;;;;;;;;;;;6.80;99.90;;;;;;7338497;19;109877;-68
2022/12/06 07:19:20;;;;;;;;;;;6.80;99.90;;;;;;7338025;19;108369;-68
2022/12/06 07:21:47;;;;;;;;;;;6.80;99.90;;;;;;7338929;19;109167;-68
2022/12/06 07:24:14;;;;;;;;;;;6.80;99.90;;;;;;7335100;19;109238;-70
2022/12/06 07:26:41;;;;;;;;;;;6.80;99.90;;;;;;7343903;19;108728;-69
2022/12/06 07:29:08;;;;;;;;;;;6.80;99.90;;;;;;7336914;19;110745;-74
2022/12/06 07:31:35;;;;;;;;;;;6.70;99.90;;;;;;7338365;19;109064;-75
2022/12/06 07:34:02;;;;;;;;;;;6.70;99.90;;;;;;7339266;19;109462;-78
2022/12/06 07:36:30;;;;;;;;;;;6.80;99.90;;;;;;7337153;19;110532;-76
2022/12/06 07:38:57;;;;;;;;;;;6.80;99.90;;;;;;7337279;19;111372;-71
2022/12/06 07:46:57;;;;;;;;;;;6.80;99.90;;;;;;7336820;19;109420;-69
2022/12/06 07:49:24;;;;;;;;;;;6.80;99.90;;;;;;7341544;19;109152;-73
2022/12/06 07:51:52;;;;;;;;;;;6.80;99.90;;;;;;7336940;19;109534;-69
2022/12/06 07:54:19;;;;;;;;;;;6.90;99.90;;;;;;7337235;19;108482;-69
2022/12/06 07:56:45;;;;;;;;;;;6.80;99.90;;;;;;7336828;19;110318;-68
2022/12/06 07:59:12;;;;;;;;;;;6.80;99.90;;;;;;7338453;19;109684;-68
2022/12/06 08:01:39;;;;;;;;;;;6.80;99.90;;;;;;7344225;19;108614;-68
2022/12/06 08:04:07;;;;;;;;;;;6.90;99.90;;;;;;7345383;19;110247;-68
2022/12/06 08:06:34;;;;;;;;;;;6.80;99.90;;;;;;7346058;19;109269;-69
2022/12/06 08:09:01;;;;;;;;;;;6.80;99.90;;;;;;7343003;19;109532;-69
2022/12/06 08:11:28;;;;;;;;;;;6.80;99.90;;;;;;7348007;19;109150;-68
2022/12/06 08:13:56;;;;;;;;;;;6.80;99.90;;;;;;7344716;19;108763;-68
2022/12/06 08:16:22;;;;;;;;;;;6.80;99.90;;;;;;7343690;19;110747;-68
2022/12/06 08:18:51;;;;;;;;;;;6.80;99.90;;;;;;7345104;19;108519;-68
2022/12/06 08:21:18;;;;;;;;;;;6.80;99.90;;;;;;7342320;19;108859;-68
2022/12/06 08:23:45;;;;;;;;;;;6.80;99.90;;;;;;7343408;19;110353;-68
2022/12/06 08:26:14;;;;;;;;;;;6.80;99.90;;;;;;7343175;19;111635;-68
2022/12/06 08:28:44;;;;;;;;;;;6.80;99.90;;;;;;7342848;19;109944;-68
2022/12/06 08:31:13;;;;;;;;;;;6.80;99.90;;;;;;7347338;19;110503;-68
2022/12/06 08:33:43;;;;;;;;;;;6.80;99.90;;;;;;7344715;19;109441;-68
2022/12/06 08:36:11;;;;;;;;;;;6.80;99.90;;;;;;7340761;19;110351;-69
2022/12/06 08:38:38;;;;;;;;;;;6.80;99.90;;;;;;7341707;19;109627;-68
2022/12/06 08:41:05;;;;;;;;;;;6.80;99.90;;;;;;7342279;19;108862;-68
2022/12/06 08:43:32;;;;;;;;;;;6.80;99.90;;;;;;7341903;19;110270;-68
2022/12/06 08:45:59;;;;;;;;;;;6.90;99.90;;;;;;7342678;19;109017;-68
2022/12/06 08:48:26;;;;;;;;;;;6.80;99.90;;;;;;7339287;19;109327;-68
2022/12/06 08:50:53;;;;;;;;;;;6.80;99.90;;;;;;7341956;19;109353;-68
2022/12/06 08:53:20;;;;;;;;;;;6.80;99.90;;;;;;7346455;19;108725;-68
2022/12/06 08:55:54;;;;;;;;;;;6.80;99.90;;;;;;7340860;19;111067;-68
2022/12/06 08:58:28;;;;;;;;;;;6.90;99.90;;;;;;7340860;19;109588;-68
2022/12/06 09:00:55;;;;;;;;;;;6.90;99.90;;;;;;7341405;19;108631;-68
2022/12/06 09:03:22;;;;;;;;;;;6.90;99.90;;;;;;7343613;19;110871;-68
2022/12/06 09:05:49;;;;;;;;;;;7.00;99.90;;;;;;7338451;19;109044;-69
2022/12/06 09:08:16;;;;;;;;;;;7.00;99.90;;;;;;7336268;19;109876;-68
2022/12/06 09:10:43;;;;;;;;;;;7.00;99.90;;;;;;7341220;19;109199;-68
2022/12/06 09:13:10;;;;;;;;;;;7.00;99.90;;;;;;7340959;19;109119;-69
2022/12/06 09:15:37;;;;;;;;;;;7.00;99.90;;;;;;7346735;19;108917;-69
2022/12/06 09:18:04;;;;;;;;;;;7.00;99.90;;;;;;7340714;19;109153;-68
2022/12/06 09:20:31;;;;;;;;;;;7.00;99.90;;;;;;7340187;19;109739;-68
2022/12/06 09:22:58;;;;;;;;;;;7.00;99.90;;;;;;7341150;19;111271;-68
2022/12/06 09:25:25;;;;;;;;;;;7.00;99.90;;;;;;7340132;19;108796;-68
2022/12/06 09:27:52;;;;;;;;;;;7.00;99.90;;;;;;7342143;19;109257;-68
2022/12/06 09:30:19;;;;;;;;;;;7.00;99.90;;;;;;7338845;19;110428;-68
2022/12/06 09:32:47;;;;;;;;;;;7.00;99.90;;;;;;7342237;19;108964;-68
2022/12/06 09:35:14;;;;;;;;;;;7.00;99.90;;;;;;7340223;19;109298;-68
2022/12/06 09:37:45;;;;;;;;;;;7.10;99.90;;;;;;7346950;19;109141;-68
2022/12/06 09:40:30;;;;;;;;;;;7.20;99.90;;;;;;7340287;19;109257;-70
2022/12/06 09:43:16;;;;;;;;;;;7.20;99.90;;;;;;7341009;19;110266;-68
2022/12/06 09:46:04;;;;;;;;;;;7.30;99.90;;;;;;7340035;19;108872;-68
2022/12/06 09:48:43;;;;;;;;;;;7.30;99.90;;;;;;7340311;19;108541;-69
2022/12/06 09:51:20;;;;;;;;;;;7.30;99.90;;;;;;7341186;19;109250;-68
2022/12/06 09:53:57;;;;;;;;;;;7.30;99.90;;;;;;7341972;19;108891;-68
2022/12/06 09:56:33;;;;;;;;;;;7.40;99.90;;;;;;7339784;19;109683;-68
2022/12/06 09:59:22;;;;;;;;;;;7.50;99.90;;;;;;7339343;19;113914;-68
2022/12/06 10:01:49;;;;;;;;;;;7.50;99.90;;;;;;7344720;19;108372;-68
2022/12/06 10:04:16;;;;;;;;;;;7.60;99.90;;;;;;7339169;19;110806;-68
2022/12/06 10:06:49;;;;;;;;;;;7.70;99.90;;;;;;7340167;19;109562;-68
2022/12/06 10:09:23;;;;;;;;;;;7.70;99.90;;;;;;7339757;19;109201;-68
2022/12/06 10:11:56;;;;;;;;;;;7.80;99.90;;;;;;7339412;19;110175;-68
2022/12/06 10:14:40;;;;;;;;;;;7.80;99.90;;;;;;7338557;19;109046;-68
2022/12/06 10:17:13;;;;;;;;;;;7.80;99.90;;;;;;7340601;19;113118;-68
2022/12/06 10:19:59;;;;;;;;;;;7.80;99.90;;;;;;7340379;19;111919;-68
2022/12/06 10:22:39;;;;;;;;;;;7.80;99.90;;;;;;7335231;19;108695;-69
2022/12/06 10:25:05;;;;;;;;;;;7.90;99.90;;;;;;7344021;19;109145;-68
2022/12/06 10:27:37;;;;;;;;;;;8.00;99.90;;;;;;7338240;19;108615;-68
2022/12/06 10:30:09;;;;;;;;;;;8.00;99.90;;;;;;7338080;19;108903;-68
2022/12/06 10:32:49;;;;;;;;;;;8.10;99.90;;;;;;7340266;19;110257;-69
2022/12/06 10:35:19;;;;;;;;;;;8.10;99.90;;;;;;7339229;19;109774;-68
2022/12/06 10:37:46;;;;;;;;;;;8.20;99.90;;;;;;7339359;19;108262;-68
2022/12/06 10:40:16;;;;;;;;;;;8.20;99.90;;;;;;7335750;19;113842;-68
2022/12/06 10:42:52;;;;;;;;;;;8.30;99.90;;;;;;7340003;19;108935;-68
2022/12/06 10:48:13;;;;;;;;;;;8.40;99.90;;;;;;7338331;19;108977;-69
2022/12/06 10:50:41;;;;;;;;;;;8.50;99.90;;;;;;7337961;19;109601;-68
2022/12/06 10:53:10;;;;;;;;;;;8.50;99.90;;;;;;7337259;19;110143;-69
2022/12/06 10:55:37;;;;;;;;;;;8.50;99.90;;;;;;7339268;19;109314;-68
2022/12/06 10:58:24;;;;;;;;;;;8.50;99.90;;;;;;7337924;19;108288;-68
2022/12/06 11:00:51;;;;;;;;;;;8.60;99.90;;;;;;7337422;19;109322;-68
2022/12/06 11:03:18;;;;;;;;;;;8.70;99.90;;;;;;7337974;19;108334;-69
2022/12/06 11:05:50;;;;;;;;;;;8.80;99.90;;;;;;7338451;19;109839;-68
2022/12/06 11:08:24;;;;;;;;;;;8.80;99.90;;;;;;7342428;19;114071;-68
2022/12/06 11:10:53;;;;;;;;;;;8.80;99.90;;;;;;7338531;19;108670;-68
2022/12/06 11:13:24;;;;;;;;;;;8.80;99.90;;;;;;7338064;19;110108;-68
2022/12/06 11:15:58;;;;;;;;;;;8.90;99.90;;;;;;7337771;19;108469;-68
2022/12/06 11:18:27;;;;;;;;;;;8.90;99.90;;;;;;7336816;19;109609;-68
2022/12/06 11:20:57;;;;;;;;;;;8.90;99.90;;;;;;7337187;19;109677;-68
2022/12/06 11:23:44;;;;;;;;;;;8.90;99.90;;;;;;7337701;19;108858;-69
2022/12/06 11:26:30;;;;;;;;;;;9.00;99.90;;;;;;7338865;19;109220;-68
2022/12/06 11:29:04;;;;;;;;;;;9.00;99.90;;;;;;7338842;19;110367;-69
2022/12/06 11:31:35;;;;;;;;;;;9.10;99.90;;;;;;7341142;19;108932;-68
2022/12/06 11:34:03;;;;;;;;;;;9.20;99.90;;;;;;7334229;19;109195;-68
2022/12/06 11:36:30;;;;;;;;;;;9.20;99.90;;;;;;7336558;19;108572;-68
2022/12/06 11:38:58;;;;;;;;;;;9.20;99.90;;;;;;7334434;19;108632;-68
2022/12/06 11:41:30;;;;;;;;;;;9.30;99.90;;;;;;7333211;19;109370;-68
2022/12/06 11:43:58;;;;;;;;;;;9.30;99.90;;;;;;7335567;19;110464;-68
2022/12/06 11:46:25;;;;;;;;;;;9.40;99.90;;;;;;7338024;19;109296;-68
2022/12/06 11:48:53;;;;;;;;;;;9.30;99.90;;;;;;7337782;19;110078;-68
2022/12/06 11:51:22;;;;;;;;;;;9.40;99.90;;;;;;7336754;19;109420;-68
2022/12/06 11:54:03;;;;;;;;;;;9.50;99.90;;;;;;7342878;19;109317;-68
2022/12/06 11:56:34;;;;;;;;;;;9.70;99.90;;;;;;7337529;19;109474;-68
2022/12/06 11:59:16;;;;;;;;;;;9.70;99.90;;;;;;7337368;19;108906;-68
2022/12/06 12:01:45;;;;;;;;;;;9.70;99.90;;;;;;7337239;19;113657;-68
2022/12/06 12:04:21;;;;;;;;;;;9.70;99.90;;;;;;7337501;19;113094;-68
2022/12/06 12:06:51;;;;;;;;;;;9.80;99.90;;;;;;7337521;19;109217;-68
2022/12/06 12:09:19;;;;;;;;;;;9.90;99.90;;;;;;7334620;19;111762;-68
2022/12/06 12:11:53;;;;;;;;;;;10.00;99.90;;;;;;7337303;19;108827;-68
2022/12/06 12:14:35;;;;;;;;;;;10.10;99.90;;;;;;7335670;19;109045;-69
2022/12/06 12:17:02;;;;;;;;;;;10.20;99.90;;;;;;7342218;19;110624;-69
2022/12/06 12:19:39;;;;;;;;;;;10.20;99.90;;;;;;7337229;19;109820;-69
2022/12/06 12:22:21;;;;;;;;;;;10.10;99.90;;;;;;7334761;19;109976;-69
2022/12/06 12:24:53;;;;;;;;;;;10.20;99.90;;;;;;7337684;19;108764;-69
2022/12/06 12:27:44;;;;;;;;;;;10.20;99.90;;;;;;7336204;19;108947;-68
2022/12/06 12:30:14;;;;;;;;;;;10.30;99.90;;;;;;7335698;19;110172;-72
2022/12/06 12:32:43;;;;;;;;;;;10.30;99.90;;;;;;7333915;19;108623;-69
2022/12/06 12:35:19;;;;;;;;;;;10.50;99.90;;;;;;7334588;19;109202;-69
2022/12/06 12:37:47;;;;;;;;;;;10.40;99.90;;;;;;7334655;19;110666;-69
2022/12/06 12:40:25;;;;;;;;;;;10.50;99.90;;;;;;7338548;19;108729;-69
2022/12/06 12:43:18;;;;;;;;;;;10.60;99.90;;;;;;7334307;19;110415;-69
2022/12/06 12:46:05;;;;;;;;;;;10.60;99.90;;;;;;7336669;19;108904;-69
2022/12/06 12:48:33;;;;;;;;;;;10.70;99.90;;;;;;7345024;19;110974;-69
2022/12/06 12:51:01;;;;;;;;;;;10.80;99.90;;;;;;7341801;19;109229;-69
2022/12/06 12:53:30;;;;;;;;;;;10.80;99.90;;;;;;7342026;19;108675;-69
2022/12/06 12:56:04;;;;;;;;;;;10.80;99.90;;;;;;7343685;19;109168;-69
2022/12/06 12:58:31;;;;;;;;;;;10.90;99.90;;;;;;7341244;19;109231;-68
2022/12/06 13:01:06;;;;;;;;;;;11.00;99.90;;;;;;7347908;19;110057;-69
2022/12/06 13:03:33;;;;;;;;;;;11.00;99.90;;;;;;7340150;19;112526;-68
2022/12/06 13:06:23;;;;;;;;;;;11.10;99.90;;;;;;7342673;19;108986;-68
2022/12/06 13:08:50;;;;;;;;;;;11.10;99.90;;;;;;7341715;19;109231;-68
2022/12/06 13:11:17;;;;;;;;;;;11.20;99.90;;;;;;7340745;19;110441;-91
2022/12/06 13:13:47;;;;;;;;;;;11.30;99.90;;;;;;7342024;19;109389;-89
2022/12/06 13:16:17;;;;;;;;;;;11.40;99.90;;;;;;7339417;19;108865;-91
2022/12/06 13:18:50;;;;;;;;;;;11.50;99.90;;;;;;7340460;19;111587;-90
2022/12/06 13:21:30;;;;;;;;;;;11.50;99.90;;;;;;7338428;19;110308;-90
2022/12/06 13:24:09;;;;;;;;;;;11.60;99.90;;;;;;7343802;19;109928;-93
2022/12/06 13:27:06;;;;;;;;;;;11.60;99.90;;;;;;7340228;19;108955;-91
2022/12/06 13:29:39;;;;;;;;;;;11.70;99.90;;;;;;7338615;19;109542;-91
2022/12/06 13:32:17;;;;;;;;;;;11.60;99.90;;;;;;7339123;19;110353;-93
2022/12/06 13:34:55;;;;;;;;;;;11.70;99.90;;;;;;7344006;19;108547;-91
2022/12/06 13:37:32;;;;;;;;;;;11.80;99.90;;;;;;7336643;19;110647;-68
2022/12/06 13:40:00;;;;;;;;;;;11.90;99.90;;;;;;7340327;19;109768;-69
2022/12/06 13:42:36;;;;;;;;;;;11.90;99.90;;;;;;7341062;19;108566;-69
2022/12/06 13:45:04;;;;;;;;;;;12.00;99.90;;;;;;7341006;19;110617;-69
2022/12/06 13:47:31;;;;;;;;;;;11.90;99.90;;;;;;7345018;19;109271;-68
2022/12/06 13:50:00;;;;;;;;;;;11.90;99.90;;;;;;7340836;19;109436;-68
2022/12/06 13:52:39;;;;;;;;;;;11.80;99.90;;;;;;7339549;19;109100;-68
2022/12/06 13:55:24;;;;;;;;;;;11.70;99.90;;;;;;7341519;19;108811;-68
2022/12/06 13:57:54;;;;;;;;;;;11.70;99.90;;;;;;7339093;19;109691;-68
2022/12/06 14:00:44;;;;;;;;;;;11.60;99.90;;;;;;7339733;19;110322;-69
2022/12/06 14:03:17;;;;;;;;;;;11.50;99.90;;;;;;7338105;19;108895;-68
2022/12/06 14:05:56;;;;;;;;;;;11.40;99.90;;;;;;7342145;19;108588;-68
2022/12/06 14:08:40;;;;;;;;;;;11.30;99.90;;;;;;7338830;19;109601;-70
2022/12/06 14:11:10;;;;;;;;;;;11.20;99.90;;;;;;7344558;19;112652;-68
2022/12/06 14:13:37;;;;;;;;;;;11.00;99.90;;;;;;7339434;19;109299;-68
2022/12/06 14:16:05;;;;;;;;;;;10.90;99.90;;;;;;7340501;19;108656;-69
2022/12/06 14:18:33;;;;;;;;;;;10.90;99.90;;;;;;7340957;19;112405;-68
2022/12/06 14:21:01;;;;;;;;;;;10.80;99.90;;;;;;7338864;19;110257;-69
2022/12/06 14:23:33;;;;;;;;;;;10.70;99.90;;;;;;7339212;19;108918;-70
2022/12/06 14:26:11;;;;;;;;;;;10.60;99.90;;;;;;7339187;19;108754;-69
2022/12/06 14:28:38;;;;;;;;;;;10.50;99.90;;;;;;7339454;19;109317;-68
2022/12/06 14:31:06;;;;;;;;;;;10.40;99.90;;;;;;7336343;19;108895;-69
2022/12/06 14:33:37;;;;;;;;;;;10.30;99.90;;;;;;7342326;19;109945;-69
2022/12/06 14:36:05;;;;;;;;;;;10.20;99.90;;;;;;7341114;19;108409;-69
2022/12/06 14:38:32;;;;;;;;;;;10.10;99.90;;;;;;7339816;19;109663;-68
2022/12/06 14:43:45;;;;;;;;;;;9.80;99.90;;;;;;7339382;19;108967;-68
2022/12/06 14:46:14;;;;;;;;;;;9.70;99.90;;;;;;7338029;19;112716;-69
2022/12/06 14:51:35;;;;;;;;;;;9.60;99.90;;;;;;7333334;19;115545;-68
2022/12/06 14:54:15;;;;;;;;;;;9.40;99.90;;;;;;7344062;19;108323;-68
2022/12/06 14:56:43;;;;;;;;;;;9.30;99.90;;;;;;7339407;19;108506;-69
2022/12/06 14:59:11;;;;;;;;;;;9.30;99.90;;;;;;7337334;19;108968;-68
2022/12/06 15:01:47;;;;;;;;;;;9.20;99.90;;;;;;7340618;19;110765;-68
2022/12/06 15:04:33;;;;;;;;;;;9.10;99.90;;;;;;7339167;19;109450;-69
2022/12/06 15:07:00;;;;;;;;;;;9.10;99.90;;;;;;7338890;19;109544;-69